Time;durP1;ratioP1;P1;durP2;ratioP2;P2;SDS_P1;SDS_P2;PMS_P1;PMS_P2;Temp;Humidity;BMP_temperature;BMP_pressure;BME280_temperature;BME280_humidity;BME280_pressure;Samples;Min_cycle;Max_cycle;Signal;HPM_P1;HPM_P2
2022/04/27 00:01:02;;;;;;;10.70;9.70;;;12.60;99.90;;;;;;5015665;28;20210;-68
2022/04/27 00:03:28;;;;;;;12.10;10.07;;;12.60;99.90;;;;;;5014815;28;20428;-68
2022/04/27 00:05:54;;;;;;;13.50;10.10;;;12.70;99.90;;;;;;5015364;28;20927;-68
2022/04/27 00:08:19;;;;;;;13.20;10.70;;;12.60;99.90;;;;;;5014759;28;20171;-69
2022/04/27 00:10:45;;;;;;;10.77;9.77;;;12.60;99.90;;;;;;5014130;28;20190;-68
2022/04/27 00:13:17;;;;;;;12.03;9.90;;;12.60;99.90;;;;;;5015097;28;20199;-68
2022/04/27 00:15:43;;;;;;;10.80;9.90;;;12.60;99.90;;;;;;5014730;28;20294;-68
2022/04/27 00:18:08;;;;;;;12.27;10.47;;;12.60;99.90;;;;;;5015387;28;20516;-68
2022/04/27 00:20:34;;;;;;;10.90;9.90;;;12.60;99.90;;;;;;5014416;28;20185;-68
2022/04/27 00:23:00;;;;;;;11.90;9.87;;;12.60;99.90;;;;;;5014551;28;20193;-68
2022/04/27 00:25:25;;;;;;;10.60;9.20;;;12.50;99.90;;;;;;5014364;28;20617;-68
2022/04/27 00:27:51;;;;;;;10.63;9.57;;;12.50;99.90;;;;;;5013534;28;20199;-68
2022/04/27 00:30:17;;;;;;;12.03;10.33;;;12.50;99.90;;;;;;5014846;28;20225;-71
2022/04/27 00:32:43;;;;;;;10.90;9.93;;;12.50;99.90;;;;;;5014046;28;20213;-68
2022/04/27 00:35:08;;;;;;;14.07;9.90;;;12.50;99.90;;;;;;5015135;28;20223;-69
2022/04/27 00:37:35;;;;;;;9.90;9.00;;;12.50;99.90;;;;;;5014177;28;20208;-69
2022/04/27 00:40:01;;;;;;;10.70;9.27;;;12.50;99.90;;;;;;5013411;28;20255;-68
2022/04/27 00:42:27;;;;;;;12.07;10.97;;;12.50;99.90;;;;;;5014033;28;20910;-68
2022/04/27 00:44:52;;;;;;;11.27;10.00;;;12.50;99.90;;;;;;5014519;28;20439;-68
2022/04/27 00:47:19;;;;;;;10.80;9.70;;;12.50;99.90;;;;;;5014270;28;20181;-70
2022/04/27 00:49:52;;;;;;;11.17;10.17;;;12.40;99.90;;;;;;5013739;28;20561;-68
2022/04/27 00:52:19;;;;;;;10.10;9.20;;;12.40;99.90;;;;;;4999768;28;20458;-71
2022/04/27 00:54:48;;;;;;;10.60;9.23;;;12.30;99.90;;;;;;5014525;28;20502;-68
2022/04/27 00:57:14;;;;;;;12.00;10.37;;;12.40;99.90;;;;;;5013769;28;20423;-68
2022/04/27 00:59:40;;;;;;;10.33;9.13;;;12.30;99.90;;;;;;5013382;28;20897;-68
2022/04/27 01:02:07;;;;;;;9.90;8.03;;;12.20;99.90;;;;;;5013959;28;20449;-68
2022/04/27 01:04:34;;;;;;;10.10;9.10;;;12.20;99.90;;;;;;5013247;28;20430;-68
2022/04/27 01:07:00;;;;;;;10.67;9.57;;;12.20;99.90;;;;;;5014091;28;20829;-68
2022/04/27 01:09:28;;;;;;;12.17;10.90;;;12.20;99.90;;;;;;5013290;28;20406;-69
2022/04/27 01:11:54;;;;;;;10.40;9.30;;;12.30;99.90;;;;;;5013586;28;20439;-68
2022/04/27 01:14:20;;;;;;;9.70;8.87;;;12.20;99.90;;;;;;5013822;28;20461;-71
2022/04/27 01:16:56;;;;;;;10.30;9.37;;;12.20;99.90;;;;;;5012232;28;20441;-68
2022/04/27 01:19:23;;;;;;;10.10;9.10;;;12.20;99.90;;;;;;5013549;28;20229;-71
2022/04/27 01:21:50;;;;;;;10.17;9.03;;;12.20;99.90;;;;;;5013510;28;20929;-68
2022/04/27 01:24:26;;;;;;;11.23;10.13;;;12.20;99.90;;;;;;5013736;28;20513;-68
2022/04/27 01:26:53;;;;;;;10.27;9.37;;;12.20;99.90;;;;;;5013752;28;20898;-68
2022/04/27 01:29:20;;;;;;;11.10;9.90;;;12.10;99.90;;;;;;5013110;28;20778;-67
2022/04/27 01:31:46;;;;;;;9.57;8.67;;;12.20;99.90;;;;;;5013096;28;20496;-68
2022/04/27 01:34:13;;;;;;;10.60;9.20;;;12.10;99.90;;;;;;5013782;28;20450;-68
2022/04/27 01:36:39;;;;;;;11.20;9.37;;;12.10;99.90;;;;;;5013048;28;20406;-68
2022/04/27 01:39:06;;;;;;;10.53;9.60;;;12.10;99.90;;;;;;5013850;28;20527;-68
2022/04/27 01:41:32;;;;;;;9.80;8.90;;;12.10;99.90;;;;;;5012913;28;20409;-68
2022/04/27 01:43:58;;;;;;;15.63;9.37;;;12.10;99.90;;;;;;5013933;28;20472;-68
2022/04/27 01:46:24;;;;;;;13.20;10.40;;;12.00;99.90;;;;;;5011793;28;20483;-70
2022/04/27 01:48:50;;;;;;;11.20;10.10;;;12.00;99.90;;;;;;5013294;28;20373;-68
2022/04/27 01:51:18;;;;;;;10.73;9.70;;;11.90;99.90;;;;;;5013796;28;20599;-68
2022/04/27 01:56:28;;;;;;;10.37;9.37;;;11.90;99.90;;;;;;5012421;28;20441;-68
2022/04/27 01:58:54;;;;;;;11.43;9.47;;;11.90;99.90;;;;;;5013223;28;20431;-68
2022/04/27 02:01:21;;;;;;;10.20;9.30;;;11.90;99.90;;;;;;5013196;28;20177;-68
2022/04/27 02:03:47;;;;;;;15.23;10.70;;;11.90;99.90;;;;;;5012853;28;20214;-68
2022/04/27 02:06:19;;;;;;;11.70;9.93;;;11.90;99.90;;;;;;5013386;28;20418;-68
2022/04/27 02:08:46;;;;;;;12.60;9.00;;;11.90;99.90;;;;;;5011712;28;20878;-68
2022/04/27 02:11:12;;;;;;;10.60;9.50;;;11.80;99.90;;;;;;5013272;28;20432;-68
2022/04/27 02:13:37;;;;;;;11.33;10.13;;;11.90;99.90;;;;;;5012004;28;20458;-67
2022/04/27 02:16:03;;;;;;;12.73;9.67;;;11.90;99.90;;;;;;5013172;28;20180;-68
2022/04/27 02:18:29;;;;;;;10.03;9.03;;;11.90;99.90;;;;;;5011906;28;20222;-68
2022/04/27 02:21:01;;;;;;;10.53;9.33;;;11.90;99.90;;;;;;5012960;28;20406;-68
2022/04/27 02:23:26;;;;;;;10.17;9.17;;;11.90;99.90;;;;;;5012259;28;20433;-71
2022/04/27 02:25:52;;;;;;;9.47;8.60;;;11.80;99.90;;;;;;5012504;28;20384;-68
2022/04/27 02:28:18;;;;;;;11.77;9.73;;;11.80;99.90;;;;;;5012342;28;20207;-68
2022/04/27 02:30:43;;;;;;;12.60;9.73;;;11.60;99.70;;;;;;5011679;28;20647;-68
2022/04/27 02:33:09;;;;;;;11.33;8.87;;;11.50;99.70;;;;;;5011502;28;20297;-68
2022/04/27 02:35:35;;;;;;;9.40;8.60;;;11.60;99.90;;;;;;5011786;28;20265;-68
2022/04/27 02:38:00;;;;;;;11.97;10.10;;;11.60;99.90;;;;;;5011523;28;20183;-67
2022/04/27 02:40:26;;;;;;;10.20;9.07;;;11.70;99.90;;;;;;5012255;28;20178;-71
2022/04/27 02:42:52;;;;;;;10.10;9.00;;;11.60;99.90;;;;;;5011202;28;20210;-68
2022/04/27 02:45:18;;;;;;;11.30;10.20;;;11.70;99.90;;;;;;5012134;28;20180;-68
2022/04/27 02:47:44;;;;;;;10.33;9.40;;;11.70;99.90;;;;;;5010339;28;20433;-68
2022/04/27 02:52:54;;;;;;;10.70;9.63;;;11.60;99.90;;;;;;5012857;28;20233;-68
2022/04/27 02:55:22;;;;;;;10.27;9.03;;;11.60;99.90;;;;;;5011985;28;20465;-68
2022/04/27 02:57:48;;;;;;;10.40;9.40;;;11.60;99.90;;;;;;5011608;28;20733;-69
2022/04/27 03:00:14;;;;;;;11.10;10.00;;;11.50;99.90;;;;;;5011732;28;20545;-68
2022/04/27 03:02:40;;;;;;;10.23;9.10;;;11.50;99.90;;;;;;5011283;28;20787;-69
2022/04/27 03:05:06;;;;;;;11.20;10.20;;;11.40;99.90;;;;;;5012233;28;20198;-68
2022/04/27 03:07:32;;;;;;;11.07;9.93;;;11.40;99.90;;;;;;5010053;28;20178;-69
2022/04/27 03:09:57;;;;;;;10.70;9.70;;;11.50;99.90;;;;;;5027165;28;20436;-68
2022/04/27 03:12:23;;;;;;;10.47;9.47;;;11.40;99.90;;;;;;5012373;28;20209;-68
2022/04/27 03:14:49;;;;;;;12.13;10.83;;;11.30;99.90;;;;;;5011912;28;20670;-68
2022/04/27 03:17:14;;;;;;;11.53;10.40;;;11.40;99.90;;;;;;5011792;28;20194;-68
2022/04/27 03:19:41;;;;;;;12.13;10.87;;;11.40;99.90;;;;;;5010979;28;20174;-68
2022/04/27 03:22:08;;;;;;;11.17;9.97;;;11.40;99.90;;;;;;5014244;28;20217;-68
2022/04/27 03:24:34;;;;;;;11.63;10.43;;;11.40;99.90;;;;;;5014395;28;20525;-68
2022/04/27 03:27:00;;;;;;;12.50;11.30;;;11.40;99.90;;;;;;5014218;28;20521;-68
2022/04/27 03:29:25;;;;;;;11.97;10.77;;;11.40;99.90;;;;;;5015249;28;20422;-68
2022/04/27 03:31:51;;;;;;;14.87;11.03;;;11.50;99.90;;;;;;5015219;28;20539;-68
2022/04/27 03:34:17;;;;;;;11.83;10.60;;;11.40;99.90;;;;;;5016177;28;20213;-68
2022/04/27 03:36:42;;;;;;;11.83;10.67;;;11.40;99.90;;;;;;5014915;28;20241;-68
2022/04/27 03:39:08;;;;;;;13.77;11.20;;;11.50;99.90;;;;;;5013740;28;20636;-68
2022/04/27 03:41:34;;;;;;;13.13;11.93;;;11.50;99.90;;;;;;5014989;28;20175;-69
2022/04/27 03:43:59;;;;;;;12.90;11.60;;;11.50;99.90;;;;;;5015854;28;20577;-69
2022/04/27 03:46:25;;;;;;;14.30;11.77;;;11.50;99.90;;;;;;5015658;28;20180;-68
2022/04/27 03:48:51;;;;;;;12.93;10.80;;;11.50;99.90;;;;;;5014936;28;20233;-68
2022/04/27 03:51:17;;;;;;;13.33;11.57;;;11.40;99.90;;;;;;5016110;28;20187;-68
2022/04/27 03:53:43;;;;;;;11.77;10.30;;;11.30;99.90;;;;;;5015082;28;20583;-69
2022/04/27 03:56:08;;;;;;;13.63;10.93;;;11.30;99.90;;;;;;5015486;28;20696;-68
2022/04/27 03:58:34;;;;;;;12.47;11.33;;;11.30;99.90;;;;;;5014871;28;20622;-68
2022/04/27 04:01:00;;;;;;;12.30;11.20;;;11.30;99.90;;;;;;5015258;28;20187;-68
2022/04/27 04:03:26;;;;;;;12.60;9.90;;;11.30;99.90;;;;;;5015355;28;20223;-68
2022/04/27 04:05:52;;;;;;;16.77;9.90;;;11.30;99.90;;;;;;5014835;28;20769;-68
2022/04/27 04:08:18;;;;;;;12.93;9.90;;;11.30;99.90;;;;;;5015322;28;20172;-68
2022/04/27 04:10:45;;;;;;;10.80;9.70;;;11.40;99.90;;;;;;5013261;28;20430;-68
2022/04/27 04:13:12;;;;;;;11.43;10.27;;;11.40;99.90;;;;;;5015211;28;20995;-68
2022/04/27 04:15:37;;;;;;;11.13;9.80;;;11.30;99.90;;;;;;5014065;28;20430;-68
2022/04/27 04:18:05;;;;;;;10.63;9.63;;;11.20;99.90;;;;;;5015227;28;20564;-68
2022/04/27 04:20:30;;;;;;;12.07;10.87;;;11.20;99.90;;;;;;5013643;28;20598;-71
2022/04/27 04:22:57;;;;;;;20.00;11.20;;;11.20;99.90;;;;;;5014397;28;20485;-68
2022/04/27 04:30:51;;;;;;;11.93;10.60;;;11.20;99.90;;;;;;5014131;28;21094;-68
2022/04/27 04:33:17;;;;;;;12.77;11.00;;;11.10;99.90;;;;;;5014671;28;20461;-68
2022/04/27 04:35:43;;;;;;;15.73;11.60;;;11.10;99.90;;;;;;5012411;28;20705;-68
2022/04/27 04:38:09;;;;;;;12.67;10.23;;;11.20;99.90;;;;;;5013622;28;20452;-68
2022/04/27 04:40:35;;;;;;;13.50;12.20;;;11.10;99.90;;;;;;5014032;28;20179;-71
2022/04/27 04:43:00;;;;;;;12.93;11.23;;;11.20;99.90;;;;;;5013294;28;20696;-68
2022/04/27 04:45:26;;;;;;;12.13;10.70;;;11.10;99.90;;;;;;5014655;28;20429;-68
2022/04/27 04:47:52;;;;;;;13.03;11.37;;;11.00;99.90;;;;;;5013323;28;20843;-68
2022/04/27 04:50:18;;;;;;;12.30;10.77;;;11.10;99.90;;;;;;4997082;28;20594;-68
2022/04/27 04:52:46;;;;;;;12.57;11.27;;;11.10;99.90;;;;;;5013497;28;20536;-68
2022/04/27 04:55:12;;;;;;;14.03;11.20;;;11.20;99.90;;;;;;5014606;28;20459;-68
2022/04/27 04:57:38;;;;;;;13.10;11.07;;;11.20;99.90;;;;;;5013336;28;20822;-69
2022/04/27 05:00:05;;;;;;;16.63;11.90;;;11.20;99.90;;;;;;5014155;28;20468;-68
2022/04/27 05:02:34;;;;;;;12.57;11.27;;;11.20;99.90;;;;;;5008745;28;20191;-68
2022/04/27 05:05:04;;;;;;;12.93;11.63;;;11.20;99.90;;;;;;4994578;28;20516;-68
2022/04/27 05:07:31;;;;;;;12.87;11.63;;;11.20;99.90;;;;;;4993776;28;20419;-68
2022/04/27 05:09:57;;;;;;;12.67;11.37;;;11.10;99.90;;;;;;5002659;28;20469;-68
2022/04/27 05:12:23;;;;;;;16.60;11.53;;;11.10;99.90;;;;;;5029500;28;20447;-68
2022/04/27 05:14:49;;;;;;;16.10;10.97;;;11.10;99.90;;;;;;5006609;28;20622;-68
2022/04/27 05:17:15;;;;;;;14.83;9.87;;;11.00;99.90;;;;;;5011930;28;20429;-68
2022/04/27 05:19:41;;;;;;;13.63;11.10;;;11.00;99.90;;;;;;5013181;28;20887;-69
2022/04/27 05:22:07;;;;;;;12.60;10.77;;;11.00;99.90;;;;;;5014095;28;20176;-68
2022/04/27 05:24:33;;;;;;;12.27;10.83;;;11.00;99.90;;;;;;5014121;28;20936;-71
2022/04/27 05:26:59;;;;;;;12.90;11.57;;;11.00;99.90;;;;;;5013136;28;20417;-67
2022/04/27 05:32:10;;;;;;;13.90;11.73;;;11.00;99.90;;;;;;5011828;28;20167;-67
2022/04/27 05:34:36;;;;;;;14.40;12.10;;;11.00;99.90;;;;;;5015314;28;20456;-70
2022/04/27 05:37:03;;;;;;;13.77;12.43;;;10.90;99.90;;;;;;5013066;28;20433;-67
2022/04/27 05:39:29;;;;;;;13.90;12.10;;;10.80;99.90;;;;;;5013856;28;20430;-67
2022/04/27 05:41:55;;;;;;;15.87;11.60;;;10.60;99.90;;;;;;5013134;28;20411;-67
2022/04/27 05:44:23;;;;;;;14.10;12.60;;;10.50;99.90;;;;;;5012863;28;20422;-67
2022/04/27 05:46:49;;;;;;;15.23;11.87;;;10.40;99.90;;;;;;5012830;28;20437;-67
2022/04/27 05:49:15;;;;;;;16.07;14.40;;;10.40;99.90;;;;;;5013242;28;21000;-67
2022/04/27 05:51:41;;;;;;;14.80;13.20;;;10.30;99.90;;;;;;5012152;28;20795;-70
2022/04/27 05:54:07;;;;;;;13.57;11.83;;;10.40;99.90;;;;;;5013776;28;20557;-68
2022/04/27 05:56:34;;;;;;;16.10;14.40;;;10.30;99.90;;;;;;5013472;28;20408;-68
2022/04/27 05:59:00;;;;;;;15.00;13.40;;;10.30;99.90;;;;;;5012775;28;20443;-68
2022/04/27 06:01:26;;;;;;;14.57;13.20;;;10.20;99.90;;;;;;5013572;28;20999;-69
2022/04/27 06:03:53;;;;;;;22.13;17.60;;;10.10;99.90;;;;;;5012594;28;20530;-68
2022/04/27 06:06:20;;;;;;;17.70;14.30;;;10.10;99.90;;;;;;5013909;28;20416;-68
2022/04/27 06:08:46;;;;;;;20.70;16.40;;;10.20;99.90;;;;;;5012533;28;20491;-68
2022/04/27 06:11:12;;;;;;;14.77;13.27;;;10.20;99.90;;;;;;5013155;28;20427;-70
2022/04/27 06:13:37;;;;;;;14.27;12.77;;;10.20;99.90;;;;;;5011080;28;20602;-69
2022/04/27 06:16:03;;;;;;;13.33;11.97;;;10.20;99.90;;;;;;5007602;28;20174;-68
2022/04/27 06:18:29;;;;;;;14.07;12.57;;;10.30;99.90;;;;;;5012705;28;20178;-68
2022/04/27 06:20:55;;;;;;;14.80;13.40;;;10.30;99.90;;;;;;5012369;28;20651;-67
2022/04/27 06:23:23;;;;;;;14.87;12.23;;;10.40;99.90;;;;;;4995890;28;20185;-68
2022/04/27 06:25:49;;;;;;;13.30;12.20;;;10.60;99.90;;;;;;5012736;28;20429;-70
2022/04/27 06:28:19;;;;;;;14.67;13.10;;;10.60;99.90;;;;;;5012812;28;20411;-69
2022/04/27 06:30:45;;;;;;;14.53;13.10;;;10.70;99.90;;;;;;5011964;28;20546;-68
2022/04/27 06:33:11;;;;;;;14.00;12.17;;;10.80;99.90;;;;;;5012895;28;20460;-68
2022/04/27 06:35:37;;;;;;;13.67;12.40;;;10.80;99.90;;;;;;5013044;28;20425;-68
2022/04/27 06:38:04;;;;;;;13.10;11.77;;;10.90;99.90;;;;;;5012201;28;20293;-68
2022/04/27 06:40:29;;;;;;;12.70;11.43;;;11.00;99.90;;;;;;5012688;28;20422;-71
2022/04/27 06:42:56;;;;;;;13.07;11.53;;;11.10;99.90;;;;;;5011997;28;20929;-68
2022/04/27 06:45:27;;;;;;;14.10;11.30;;;11.20;99.90;;;;;;4995222;28;20183;-68
2022/04/27 06:47:54;;;;;;;15.00;11.17;;;11.30;99.90;;;;;;5016291;28;20481;-70
2022/04/27 06:50:20;;;;;;;13.93;12.43;;;11.30;99.90;;;;;;5016056;28;20827;-70
2022/04/27 06:52:46;;;;;;;14.00;11.47;;;11.00;99.90;;;;;;5011272;28;20559;-70
2022/04/27 06:55:13;;;;;;;14.07;12.53;;;11.00;99.90;;;;;;5011552;28;20548;-71
2022/04/27 06:57:39;;;;;;;12.10;10.90;;;11.10;99.90;;;;;;5010678;28;20199;-73
2022/04/27 07:00:08;;;;;;;14.07;12.47;;;11.20;99.90;;;;;;5012764;28;20934;-70
2022/04/27 07:02:35;;;;;;;12.23;11.03;;;11.20;99.90;;;;;;5012612;28;20629;-70
2022/04/27 07:05:02;;;;;;;13.17;11.70;;;11.30;99.90;;;;;;5012040;28;20429;-70
2022/04/27 07:07:28;;;;;;;11.87;10.43;;;11.40;99.90;;;;;;5012483;28;20424;-71
2022/04/27 07:09:56;;;;;;;14.00;11.10;;;11.40;99.90;;;;;;5010730;28;20433;-70
2022/04/27 07:12:21;;;;;;;14.20;12.70;;;11.50;99.90;;;;;;5012764;28;20410;-70
2022/04/27 07:14:56;;;;;;;11.60;10.43;;;11.60;99.90;;;;;;5011024;28;20481;-73
2022/04/27 07:17:22;;;;;;;12.70;10.87;;;11.50;99.90;;;;;;5010508;28;20180;-70
2022/04/27 07:19:47;;;;;;;11.20;10.00;;;11.70;99.90;;;;;;5011158;28;20845;-70
2022/04/27 07:22:14;;;;;;;13.20;11.73;;;11.70;99.90;;;;;;5012132;28;20186;-70
2022/04/27 07:24:40;;;;;;;12.60;10.73;;;11.80;99.90;;;;;;5012422;28;20803;-70
2022/04/27 07:27:06;;;;;;;13.00;11.20;;;12.00;99.90;;;;;;5012302;28;20413;-70
2022/04/27 07:29:32;;;;;;;16.03;10.90;;;12.10;99.90;;;;;;5012181;28;20931;-70
2022/04/27 07:32:01;;;;;;;11.97;10.60;;;12.10;98.90;;;;;;5011223;28;20909;-70
2022/04/27 07:34:27;;;;;;;11.73;10.57;;;12.00;98.60;;;;;;5012400;28;20451;-70
2022/04/27 07:36:52;;;;;;;12.20;10.90;;;12.10;99.50;;;;;;5011768;28;20470;-71
2022/04/27 07:39:18;;;;;;;11.43;10.23;;;12.20;99.40;;;;;;5012532;28;20794;-71
2022/04/27 07:41:45;;;;;;;12.60;9.80;;;12.20;97.60;;;;;;5011699;28;20177;-71
2022/04/27 07:44:12;;;;;;;13.55;11.48;;;12.30;98.00;;;;;;5011839;28;20883;-71
2022/04/27 07:46:37;;;;;;;12.63;11.32;;;12.20;98.70;;;;;;5011222;28;20411;-71
2022/04/27 07:49:03;;;;;;;10.73;9.63;;;12.20;97.90;;;;;;5011555;28;20280;-71
2022/04/27 07:51:29;;;;;;;12.23;10.20;;;12.50;98.80;;;;;;5012211;28;20635;-71
2022/04/27 07:53:54;;;;;;;12.03;10.83;;;12.50;98.00;;;;;;5011331;28;20454;-71
2022/04/27 07:56:20;;;;;;;10.00;9.10;;;12.70;99.20;;;;;;5012032;28;20181;-71
2022/04/27 07:58:46;;;;;;;14.93;9.20;;;12.80;99.00;;;;;;5011218;28;20179;-71
2022/04/27 08:01:11;;;;;;;10.17;9.17;;;13.00;98.20;;;;;;5012304;28;20185;-71
2022/04/27 08:03:37;;;;;;;10.87;8.77;;;13.10;96.00;;;;;;5011149;28;20643;-71
2022/04/27 08:06:04;;;;;;;8.13;7.30;;;13.10;96.20;;;;;;5011287;28;20180;-70
2022/04/27 08:08:33;;;;;;;8.40;7.60;;;13.30;94.20;;;;;;5014912;28;20228;-71
2022/04/27 08:10:59;;;;;;;9.53;8.17;;;13.40;94.70;;;;;;5014485;28;20432;-71
2022/04/27 08:13:24;;;;;;;9.57;8.67;;;13.50;94.40;;;;;;5015590;28;20599;-72
2022/04/27 08:15:50;;;;;;;9.23;8.20;;;13.70;95.00;;;;;;5014341;28;20457;-71
2022/04/27 08:18:16;;;;;;;8.57;7.80;;;13.80;94.30;;;;;;5014294;28;20192;-70
2022/04/27 08:23:29;;;;;;;9.40;8.07;;;14.10;94.20;;;;;;5013290;28;20291;-70
2022/04/27 08:25:59;;;;;;;9.83;8.90;;;14.30;92.60;;;;;;5014350;28;20417;-70
2022/04/27 08:28:27;;;;;;;10.37;9.27;;;14.10;91.20;;;;;;5015237;28;20417;-70
2022/04/27 08:30:53;;;;;;;9.57;8.57;;;14.00;93.60;;;;;;5013620;28;20452;-71
2022/04/27 08:33:19;;;;;;;9.77;8.87;;;14.10;92.10;;;;;;5015327;28;20779;-70
2022/04/27 08:35:46;;;;;;;9.80;8.90;;;14.10;92.20;;;;;;5015084;28;20497;-70
2022/04/27 08:38:11;;;;;;;9.63;8.63;;;14.10;90.80;;;;;;5015845;28;20763;-70
2022/04/27 08:40:40;;;;;;;10.23;9.20;;;14.30;93.20;;;;;;5015295;28;20409;-71
2022/04/27 08:43:06;;;;;;;9.83;8.90;;;14.60;92.50;;;;;;5014706;28;20203;-70
2022/04/27 08:45:33;;;;;;;11.50;9.27;;;14.80;92.40;;;;;;5015253;28;20419;-70
2022/04/27 08:47:59;;;;;;;10.00;9.10;;;14.70;92.50;;;;;;5014263;28;20457;-70
2022/04/27 08:50:26;;;;;;;9.97;9.07;;;14.60;91.90;;;;;;5014319;28;20426;-70
2022/04/27 08:52:52;;;;;;;13.83;9.33;;;14.90;93.10;;;;;;5013716;28;20472;-70
2022/04/27 08:55:19;;;;;;;10.67;9.60;;;15.00;91.60;;;;;;5015049;28;20414;-71
2022/04/27 08:57:45;;;;;;;11.23;9.77;;;15.20;91.50;;;;;;5015016;28;20423;-71
2022/04/27 09:00:13;;;;;;;9.47;8.10;;;15.50;92.00;;;;;;5014868;28;20460;-71
2022/04/27 09:02:40;;;;;;;9.40;8.50;;;15.70;91.30;;;;;;5014621;28;20413;-70
2022/04/27 09:05:16;;;;;;;9.93;8.80;;;16.00;91.20;;;;;;5014183;28;21100;-71
2022/04/27 09:07:52;;;;;;;10.80;9.83;;;16.00;90.40;;;;;;5014831;28;20546;-70
2022/04/27 09:10:25;;;;;;;11.30;10.20;;;16.10;90.20;;;;;;5014503;28;20507;-71
2022/04/27 09:12:52;;;;;;;9.77;8.60;;;16.30;90.00;;;;;;5013578;28;20468;-71
2022/04/27 09:15:21;;;;;;;10.07;9.17;;;16.40;90.70;;;;;;5014558;28;20438;-70
2022/04/27 09:20:54;;;;;;;9.03;8.23;;;16.60;90.30;;;;;;5014230;28;20769;-71
2022/04/27 09:23:32;;;;;;;10.63;8.77;;;17.00;90.60;;;;;;5015161;28;20500;-71
2022/04/27 09:26:13;;;;;;;9.13;8.33;;;17.30;85.30;;;;;;5014040;28;20413;-71
2022/04/27 09:28:38;;;;;;;9.43;8.63;;;17.50;83.20;;;;;;5014366;28;20424;-71
2022/04/27 09:31:04;;;;;;;9.37;8.40;;;17.80;81.50;;;;;;5013877;28;20418;-71
2022/04/27 09:33:35;;;;;;;10.17;8.87;;;17.90;79.30;;;;;;5013056;28;20673;-70
2022/04/27 09:36:17;;;;;;;10.43;9.53;;;18.00;76.00;;;;;;5013834;28;20210;-71
2022/04/27 09:38:43;;;;;;;9.00;8.20;;;18.20;79.60;;;;;;5014352;28;20394;-71
2022/04/27 09:41:09;;;;;;;10.23;9.07;;;18.40;76.20;;;;;;5013694;28;20469;-70
2022/04/27 09:43:46;;;;;;;10.07;9.20;;;18.40;78.50;;;;;;5014336;28;20421;-70
2022/04/27 09:46:22;;;;;;;10.70;9.70;;;18.50;77.60;;;;;;5013569;28;20167;-70
2022/04/27 09:49:11;;;;;;;9.80;8.93;;;18.70;74.20;;;;;;5012426;28;20873;-70
2022/04/27 09:51:37;;;;;;;9.70;8.80;;;18.80;72.70;;;;;;5014341;28;20428;-70
2022/04/27 09:54:04;;;;;;;9.20;8.37;;;19.00;76.10;;;;;;5013484;28;20592;-70
2022/04/27 09:56:35;;;;;;;8.43;7.63;;;19.00;75.10;;;;;;5012704;28;20764;-70
2022/04/27 09:59:04;;;;;;;9.87;9.00;;;19.10;75.10;;;;;;5012823;28;20406;-71
2022/04/27 10:01:35;;;;;;;10.40;9.30;;;19.20;70.40;;;;;;5013458;28;20410;-70
2022/04/27 10:04:04;;;;;;;9.53;8.63;;;19.30;69.90;;;;;;5013069;28;20452;-70
2022/04/27 10:06:34;;;;;;;9.40;8.60;;;19.30;70.80;;;;;;5012497;28;20775;-70
2022/04/27 10:09:03;;;;;;;9.90;9.10;;;19.40;73.80;;;;;;5011869;28;20826;-70
2022/04/27 10:11:31;;;;;;;11.73;10.73;;;19.50;71.40;;;;;;5013597;28;20422;-70
2022/04/27 10:13:57;;;;;;;10.57;9.60;;;19.50;66.00;;;;;;5012845;28;20553;-70
2022/04/27 10:16:27;;;;;;;10.03;8.93;;;19.40;69.20;;;;;;5013468;28;20509;-70
2022/04/27 10:18:53;;;;;;;10.40;9.30;;;19.50;75.50;;;;;;5012518;28;20422;-71
2022/04/27 10:21:56;;;;;;;10.73;9.57;;;19.60;69.00;;;;;;5013311;28;20906;-70
2022/04/27 10:24:34;;;;;;;10.50;9.33;;;19.70;67.60;;;;;;5013544;28;20414;-70
2022/04/27 10:27:33;;;;;;;10.57;9.40;;;19.70;68.30;;;;;;5012823;28;20418;-70
2022/04/27 10:30:04;;;;;;;11.47;10.30;;;19.90;62.70;;;;;;5012279;28;20497;-70
2022/04/27 10:32:50;;;;;;;10.50;9.50;;;19.50;62.00;;;;;;5013307;28;20480;-70
2022/04/27 10:35:27;;;;;;;10.37;9.37;;;19.60;70.90;;;;;;5012697;28;20429;-70
2022/04/27 10:37:59;;;;;;;11.03;10.03;;;19.80;68.80;;;;;;5012466;28;20402;-71
2022/04/27 10:40:29;;;;;;;11.07;9.83;;;20.00;69.40;;;;;;5011832;28;20894;-70
2022/04/27 10:43:27;;;;;;;12.20;10.90;;;20.10;69.90;;;;;;5012445;28;20418;-70
2022/04/27 10:45:53;;;;;;;11.27;10.03;;;20.30;71.00;;;;;;5008413;28;20464;-70
2022/04/27 10:48:44;;;;;;;12.00;10.87;;;20.40;65.70;;;;;;5012822;28;20470;-70
2022/04/27 10:51:10;;;;;;;11.50;10.43;;;20.30;64.10;;;;;;5011977;28;20929;-70
2022/04/27 10:53:40;;;;;;;12.23;11.00;;;20.40;64.60;;;;;;5012499;28;20512;-70
2022/04/27 10:56:23;;;;;;;11.67;10.07;;;20.50;64.70;;;;;;5012351;28;20210;-70
2022/04/27 10:58:49;;;;;;;11.23;10.23;;;20.50;62.70;;;;;;5012686;28;20410;-70
2022/04/27 11:01:20;;;;;;;11.93;10.63;;;20.70;67.20;;;;;;5012229;28;20413;-70
2022/04/27 11:04:00;;;;;;;12.17;11.17;;;20.80;63.20;;;;;;5012861;28;20413;-70
2022/04/27 11:06:27;;;;;;;12.47;11.27;;;20.80;65.80;;;;;;5012864;28;20410;-70
2022/04/27 11:09:04;;;;;;;12.60;11.40;;;20.90;68.70;;;;;;5012789;28;20468;-70
2022/04/27 11:11:31;;;;;;;12.30;11.20;;;21.10;65.50;;;;;;5012747;28;20425;-70
2022/04/27 11:14:01;;;;;;;12.13;10.97;;;21.10;64.20;;;;;;5012049;28;20457;-70
2022/04/27 11:16:27;;;;;;;12.67;11.33;;;21.20;62.90;;;;;;5011509;28;20439;-70
2022/04/27 11:18:56;;;;;;;11.13;10.10;;;21.30;64.60;;;;;;5012871;28;20426;-70
2022/04/27 11:21:29;;;;;;;12.17;11.10;;;21.40;63.40;;;;;;5012706;28;20187;-70
2022/04/27 11:23:57;;;;;;;13.53;12.30;;;21.30;61.00;;;;;;4994578;28;20917;-72
2022/04/27 11:26:23;;;;;;;12.07;11.00;;;21.20;61.70;;;;;;5012691;28;20421;-70
2022/04/27 11:28:52;;;;;;;12.33;11.23;;;21.10;60.00;;;;;;5012732;28;20406;-70
2022/04/27 11:31:19;;;;;;;12.50;11.30;;;20.80;59.60;;;;;;5012058;28;20218;-70
2022/04/27 11:33:44;;;;;;;12.23;11.03;;;20.70;59.30;;;;;;5012586;28;20454;-70
2022/04/27 11:36:22;;;;;;;14.17;12.77;;;20.50;59.70;;;;;;5010758;28;20479;-70
2022/04/27 11:38:49;;;;;;;13.80;12.60;;;20.40;60.80;;;;;;5011467;28;20194;-70
2022/04/27 11:41:16;;;;;;;13.30;12.10;;;20.10;60.40;;;;;;5011678;28;20436;-70
2022/04/27 11:43:43;;;;;;;14.73;11.97;;;20.00;63.10;;;;;;5015960;28;20420;-70
2022/04/27 11:46:10;;;;;;;14.87;13.57;;;20.00;67.10;;;;;;5016016;28;20501;-70
2022/04/27 11:48:36;;;;;;;13.17;11.87;;;20.00;66.00;;;;;;5016015;28;20473;-70
2022/04/27 11:51:03;;;;;;;14.40;13.07;;;20.00;65.20;;;;;;5014428;28;20812;-70
2022/04/27 11:53:29;;;;;;;14.00;12.63;;;19.90;64.00;;;;;;5016036;28;20556;-70
2022/04/27 11:55:55;;;;;;;12.73;11.70;;;19.80;63.80;;;;;;5016024;28;20497;-70
2022/04/27 11:58:23;;;;;;;14.67;13.40;;;19.70;65.20;;;;;;5015813;28;20476;-70
2022/04/27 12:00:51;;;;;;;15.10;13.60;;;19.60;66.30;;;;;;5016071;28;20413;-70
2022/04/27 12:03:18;;;;;;;15.30;13.90;;;19.50;65.60;;;;;;5015475;28;20726;-70
2022/04/27 12:05:50;;;;;;;13.90;12.67;;;19.50;66.30;;;;;;5015992;28;20410;-71
2022/04/27 12:08:20;;;;;;;14.70;13.40;;;19.70;68.70;;;;;;5015104;28;20943;-70
2022/04/27 12:10:46;;;;;;;13.70;12.43;;;19.80;62.40;;;;;;5015658;28;20402;-70
2022/04/27 12:13:17;;;;;;;13.90;12.60;;;20.00;69.30;;;;;;5015148;28;20465;-70
2022/04/27 12:15:49;;;;;;;14.60;13.40;;;20.20;65.80;;;;;;5014597;28;20909;-70
2022/04/27 12:18:19;;;;;;;14.23;12.97;;;20.30;66.50;;;;;;5015369;28;20536;-70
2022/04/27 12:20:48;;;;;;;17.53;15.73;;;20.20;65.60;;;;;;5015709;28;20449;-70
2022/04/27 12:23:18;;;;;;;15.37;14.17;;;20.10;62.80;;;;;;5015097;28;20421;-70
2022/04/27 12:25:45;;;;;;;15.67;14.20;;;20.10;62.10;;;;;;5015942;28;20424;-70
2022/04/27 12:28:16;;;;;;;16.60;15.20;;;19.90;61.60;;;;;;5014586;28;20898;-70
2022/04/27 12:30:54;;;;;;;16.37;14.93;;;19.80;61.90;;;;;;5013811;28;20819;-70
2022/04/27 12:33:43;;;;;;;16.87;15.33;;;19.70;62.30;;;;;;5013973;28;20453;-70
2022/04/27 12:39:06;;;;;;;16.13;14.73;;;19.30;63.20;;;;;;5015296;28;20407;-70
2022/04/27 12:41:43;;;;;;;16.57;14.43;;;19.20;64.00;;;;;;5015427;28;20453;-70
2022/04/27 12:44:15;;;;;;;16.80;15.30;;;19.20;67.80;;;;;;5014719;28;20460;-70
2022/04/27 12:47:12;;;;;;;16.43;15.00;;;19.10;66.40;;;;;;5013922;28;20418;-70
2022/04/27 12:49:40;;;;;;;14.80;13.50;;;19.00;65.80;;;;;;5015324;28;20537;-70
2022/04/27 12:52:20;;;;;;;17.37;15.17;;;18.90;64.50;;;;;;5014680;28;20414;-70
2022/04/27 12:54:47;;;;;;;16.53;15.13;;;18.90;69.10;;;;;;5014753;28;20532;-69
2022/04/27 12:57:14;;;;;;;15.60;14.30;;;18.90;68.00;;;;;;5014491;28;20428;-69
2022/04/27 13:00:00;;;;;;;17.40;15.70;;;19.00;67.00;;;;;;5015080;28;20411;-70